createdAt,value
2022-10-01T00:00:46.085Z,79.66
2022-10-01T00:01:46.052Z,79.72
2022-10-01T00:02:46.552Z,79.55
2022-10-01T00:03:45.986Z,79.75
2022-10-01T00:04:46.025Z,80.03
2022-10-01T00:05:45.989Z,80.13
2022-10-01T00:06:45.982Z,80.13
2022-10-01T00:07:47.738Z,79.93
2022-10-01T00:08:45.987Z,79.72
2022-10-01T00:09:45.989Z,79.68
2022-10-01T00:10:45.947Z,79.03
2022-10-01T00:11:45.959Z,78.97
2022-10-01T00:12:45.948Z,79.07
2022-10-01T00:13:45.940Z,79.07
2022-10-01T00:14:45.915Z,79.07
2022-10-01T00:15:45.938Z,79.38
2022-10-01T00:16:46.025Z,79.79
2022-10-01T00:17:45.912Z,79.58
2022-10-01T00:18:45.933Z,79.03
2022-10-01T00:19:45.891Z,79.03
2022-10-01T00:20:45.883Z,78.52
2022-10-01T00:21:45.912Z,79.79
2022-10-01T00:22:45.928Z,80.09
2022-10-01T00:23:45.870Z,79.89
2022-10-01T00:24:45.875Z,80.77
2022-10-01T00:25:45.887Z,79.91
2022-10-01T00:26:45.884Z,79.91
2022-10-01T00:27:45.903Z,79.68
2022-10-01T00:28:45.843Z,78.75
2022-10-01T00:29:45.851Z,78.75
2022-10-01T00:30:45.826Z,78.52
2022-10-01T00:31:45.848Z,78.34
2022-10-01T00:32:45.893Z,78.31
2022-10-01T00:33:45.799Z,78.52
2022-10-01T00:34:45.791Z,78.20
2022-10-01T00:35:45.833Z,78.41
2022-10-01T00:36:45.831Z,78.82
2022-10-01T00:37:45.789Z,78.82
2022-10-01T00:38:45.800Z,78.68
2022-10-01T00:39:45.778Z,78.38
2022-10-01T00:40:45.759Z,77.86
2022-10-01T00:41:45.755Z,77.62
2022-10-01T00:42:45.783Z,77.56
2022-10-01T00:43:45.785Z,78.17
2022-10-01T00:44:45.728Z,78.41
2022-10-01T00:45:45.755Z,78.20
2022-10-01T00:46:45.734Z,78.48
2022-10-01T00:47:45.719Z,78.07
2022-10-01T00:48:45.761Z,78.11
2022-10-01T00:49:45.704Z,78.52
2022-10-01T00:50:45.697Z,78.61
2022-10-01T00:51:45.729Z,79.02
2022-10-01T00:52:45.688Z,78.92
2022-10-01T00:53:45.765Z,79.02
2022-10-01T00:54:45.719Z,78.72
2022-10-01T00:55:45.673Z,78.72
2022-10-01T00:56:45.661Z,78.82
2022-10-01T00:57:45.663Z,79.06
2022-10-01T00:58:45.662Z,80.08
2022-10-01T00:59:45.659Z,80.43
2022-10-01T01:00:45.695Z,80.94
2022-10-01T01:01:45.675Z,81.35
2022-10-01T01:02:45.717Z,81.45
2022-10-01T01:03:45.659Z,80.94
2022-10-01T01:04:45.632Z,80.74
2022-10-01T01:05:45.639Z,81.04
2022-10-01T01:06:45.652Z,80.83
2022-10-01T01:07:45.598Z,81.24
2022-10-01T01:08:45.594Z,81.38
2022-10-01T01:09:45.657Z,81.59
2022-10-01T01:10:45.580Z,81.79
2022-10-01T01:11:45.584Z,81.49
2022-10-01T01:12:45.555Z,81.59
2022-10-01T01:13:45.555Z,81.38
2022-10-01T01:14:46.510Z,81.59
2022-10-01T01:15:45.617Z,81.90
2022-10-01T01:16:45.534Z,82.51
2022-10-01T01:17:45.523Z,81.59
2022-10-01T01:18:45.579Z,82.62
2022-10-01T01:19:45.535Z,81.90
2022-10-01T01:20:45.515Z,82.65
2022-10-01T01:21:45.516Z,82.62
2022-10-01T01:22:45.534Z,82.51
2022-10-01T01:23:45.486Z,82.51
2022-10-01T01:24:45.513Z,81.90
2022-10-01T01:25:45.531Z,82.10
2022-10-01T01:26:45.484Z,82.45
2022-10-01T01:27:45.499Z,82.24
2022-10-01T01:28:45.567Z,82.71
2022-10-01T01:29:45.462Z,81.49
2022-10-01T01:30:45.497Z,81.90
2022-10-01T01:31:45.430Z,81.90
2022-10-01T01:32:45.432Z,81.04
2022-10-01T01:33:45.426Z,81.21
2022-10-01T01:34:45.450Z,80.49
2022-10-01T01:35:45.423Z,80.08
2022-10-01T01:36:45.415Z,79.88
2022-10-01T01:37:45.435Z,79.78
2022-10-01T01:38:45.416Z,79.43
2022-10-01T01:39:45.395Z,79.64
2022-10-01T01:40:45.434Z,80.05
2022-10-01T01:41:45.378Z,80.29
2022-10-01T01:42:45.384Z,80.39
2022-10-01T01:43:45.438Z,80.29
2022-10-01T01:44:45.367Z,80.49
2022-10-01T01:45:45.363Z,79.78
2022-10-01T01:46:45.374Z,80.39
2022-10-01T01:47:45.331Z,79.78
2022-10-01T01:48:45.338Z,80.08
2022-10-01T01:49:45.372Z,79.57
2022-10-01T01:50:45.320Z,80.90
2022-10-01T01:51:45.331Z,81.76
2022-10-01T01:52:45.318Z,81.86
2022-10-01T01:53:45.308Z,81.96
2022-10-01T01:54:45.307Z,82.48
2022-10-01T01:55:45.303Z,82.57
2022-10-01T01:56:45.294Z,83.25
2022-10-01T01:57:45.290Z,81.82
2022-10-01T01:58:45.322Z,81.65
2022-10-01T01:59:45.266Z,82.43
2022-10-01T02:00:45.271Z,81.82
2022-10-01T02:01:45.388Z,81.99
2022-10-01T02:02:45.291Z,81.93
2022-10-01T02:03:45.264Z,81.27
2022-10-01T02:04:45.290Z,81.17
2022-10-01T02:05:45.237Z,81.17
2022-10-01T02:06:45.228Z,81.48
2022-10-01T02:07:45.257Z,81.88
2022-10-01T02:08:45.237Z,80.87
2022-10-01T02:09:45.213Z,81.24
2022-10-01T02:10:45.261Z,81.68
2022-10-01T02:11:45.193Z,80.56
2022-10-01T02:12:45.192Z,81.48
2022-10-01T02:13:45.239Z,81.38
2022-10-01T02:14:45.186Z,81.65
2022-10-01T02:15:46.199Z,81.03
2022-10-01T02:16:45.212Z,80.83
2022-10-01T02:17:45.162Z,80.83
2022-10-01T02:18:45.165Z,80.62
2022-10-01T02:19:45.201Z,80.73
2022-10-01T02:20:45.147Z,81.27
2022-10-01T02:21:45.129Z,81.54
2022-10-01T02:22:45.176Z,81.38
2022-10-01T02:23:45.128Z,81.58
2022-10-01T02:24:45.116Z,81.82
2022-10-01T02:25:45.145Z,82.43
2022-10-01T02:26:45.096Z,82.50
2022-10-01T02:27:45.156Z,82.91
2022-10-01T02:28:45.103Z,82.13
2022-10-01T02:29:45.108Z,82.34
2022-10-01T02:30:45.167Z,82.50
2022-10-01T02:31:45.084Z,82.40
2022-10-01T02:32:45.072Z,81.85
2022-10-01T02:33:45.065Z,81.54
2022-10-01T02:34:45.196Z,81.54
2022-10-01T02:35:45.216Z,81.44
2022-10-01T02:36:45.054Z,80.83
2022-10-01T02:37:45.035Z,81.17
2022-10-01T02:38:45.094Z,81.58
2022-10-01T02:39:45.019Z,81.27
2022-10-01T02:40:45.089Z,81.07
2022-10-01T02:41:45.070Z,81.03
2022-10-01T02:42:45.001Z,79.50
2022-10-01T02:43:44.986Z,79.05
2022-10-01T02:44:45.020Z,78.85
2022-10-01T02:45:46.043Z,77.89
2022-10-01T02:46:44.974Z,77.04
2022-10-01T02:47:45.001Z,77.14
2022-10-01T02:48:44.962Z,76.22
2022-10-01T02:49:45.038Z,76.29
2022-10-01T02:50:45.022Z,75.57
2022-10-01T02:51:44.954Z,75.68
2022-10-01T02:52:44.931Z,76.09
2022-10-01T02:53:44.924Z,75.68
2022-10-01T02:54:44.938Z,75.78
2022-10-01T02:55:44.915Z,75.27
2022-10-01T02:56:48.869Z,75.03
2022-10-01T02:57:45.927Z,75.03
2022-10-01T02:58:44.888Z,75.27
2022-10-01T02:59:44.900Z,75.48
2022-10-01T03:00:44.926Z,74.93
2022-10-01T03:01:44.969Z,75.13
2022-10-01T03:02:44.909Z,74.83
2022-10-01T03:03:44.902Z,74.83
2022-10-01T03:04:44.928Z,74.62
2022-10-01T03:05:44.855Z,74.93
2022-10-01T03:06:44.848Z,74.73
2022-10-01T03:07:44.918Z,75.13
2022-10-01T03:08:44.834Z,74.83
2022-10-01T03:09:44.827Z,74.42
2022-10-01T03:10:46.862Z,75.13
2022-10-01T03:11:45.810Z,74.62
2022-10-01T03:12:44.818Z,74.83
2022-10-01T03:13:44.822Z,74.73
2022-10-01T03:14:44.799Z,75.23
2022-10-01T03:15:44.816Z,75.03
2022-10-01T03:16:44.862Z,75.64
2022-10-01T03:17:44.783Z,74.69
2022-10-01T03:18:44.779Z,75.34
2022-10-01T03:19:44.811Z,74.73
2022-10-01T03:20:44.775Z,74.83
2022-10-01T03:21:44.764Z,74.79
2022-10-01T03:22:44.751Z,74.62
2022-10-01T03:23:44.778Z,74.49
2022-10-01T03:24:45.520Z,74.93
2022-10-01T03:25:44.739Z,74.69
2022-10-01T03:26:44.730Z,75.10
2022-10-01T03:27:44.763Z,74.99
2022-10-01T03:28:44.826Z,75.03
2022-10-01T03:29:44.715Z,74.99
2022-10-01T03:30:44.798Z,74.58
2022-10-01T03:31:44.760Z,74.18
2022-10-01T03:32:44.714Z,73.97
2022-10-01T03:33:44.702Z,73.97
2022-10-01T03:34:44.694Z,73.54
2022-10-01T03:35:44.710Z,73.77
2022-10-01T03:36:45.682Z,74.18
2022-10-01T03:37:44.674Z,74.79
2022-10-01T03:38:44.701Z,74.79
2022-10-01T03:39:44.673Z,75.30
2022-10-01T03:40:44.666Z,74.28
2022-10-01T03:41:44.644Z,74.28
2022-10-01T03:42:44.632Z,73.43
2022-10-01T03:43:44.663Z,73.74
2022-10-01T03:44:44.629Z,73.67
2022-10-01T03:45:44.693Z,73.88
2022-10-01T03:46:44.684Z,73.97
2022-10-01T03:47:44.604Z,73.64
2022-10-01T03:48:44.606Z,73.23
2022-10-01T03:49:44.618Z,73.60
2022-10-01T03:50:44.597Z,72.99
2022-10-01T03:51:44.575Z,73.50
2022-10-01T03:52:44.634Z,73.02
2022-10-01T03:53:44.638Z,73.02
2022-10-01T03:54:44.578Z,72.92
2022-10-01T03:55:44.553Z,73.23
2022-10-01T03:56:44.585Z,73.23
2022-10-01T03:57:44.665Z,74.45
2022-10-01T03:58:44.559Z,73.40
2022-10-01T03:59:44.591Z,73.19
2022-10-01T04:00:44.557Z,72.69
2022-10-01T04:01:44.549Z,73.30
2022-10-01T04:02:44.661Z,73.10
2022-10-01T04:03:44.511Z,73.40
2022-10-01T04:04:44.512Z,73.30
2022-10-01T04:05:44.504Z,72.48
2022-10-01T04:06:44.531Z,73.50
2022-10-01T04:07:44.487Z,72.58
2022-10-01T04:08:44.476Z,73.30
2022-10-01T04:09:44.518Z,72.78
2022-10-01T04:10:44.463Z,72.82
2022-10-01T04:11:44.466Z,72.78
2022-10-01T04:12:52.853Z,73.74
2022-10-01T04:13:44.442Z,73.10
2022-10-01T04:14:44.469Z,72.78
2022-10-01T04:15:45.472Z,73.10
2022-10-01T04:16:44.422Z,73.19
2022-10-01T04:17:46.114Z,73.40
2022-10-01T04:18:45.452Z,72.99
2022-10-01T04:19:44.421Z,73.71
2022-10-01T04:20:44.423Z,74.72
2022-10-01T04:21:44.393Z,74.21
2022-10-01T04:22:44.420Z,74.93
2022-10-01T04:23:44.413Z,75.47
2022-10-01T04:24:44.395Z,75.67
2022-10-01T04:25:44.385Z,76.08
2022-10-01T04:26:44.375Z,77.00
2022-10-01T04:27:44.461Z,76.39
2022-10-01T04:28:44.393Z,76.90
2022-10-01T04:29:44.357Z,76.90
2022-10-01T04:30:44.369Z,76.69
2022-10-01T04:31:44.376Z,77.61
2022-10-01T04:32:44.338Z,77.85
2022-10-01T04:33:44.324Z,78.39
2022-10-01T04:34:44.302Z,78.56
2022-10-01T04:35:44.334Z,79.68
2022-10-01T04:36:44.301Z,79.32
2022-10-01T04:37:44.307Z,79.68
2022-10-01T04:38:44.277Z,79.79
2022-10-01T04:39:44.273Z,80.80
2022-10-01T04:40:44.274Z,80.23
2022-10-01T04:41:44.298Z,81.86
2022-10-01T04:42:44.257Z,81.56
2022-10-01T04:43:44.255Z,81.11
2022-10-01T04:44:44.247Z,81.96
2022-10-01T04:45:44.314Z,82.47
2022-10-01T04:46:44.319Z,82.68
2022-10-01T04:47:44.241Z,82.47
2022-10-01T04:48:44.223Z,82.47
2022-10-01T04:49:44.249Z,82.61
2022-10-01T04:50:44.209Z,82.78
2022-10-01T04:51:44.225Z,82.31
2022-10-01T04:52:44.226Z,83.29
2022-10-01T04:53:44.206Z,83.49
2022-10-01T04:54:44.213Z,83.84
2022-10-01T04:55:44.193Z,83.94
2022-10-01T04:56:44.204Z,83.70
2022-10-01T04:57:44.176Z,82.88
2022-10-01T04:58:44.165Z,83.53
2022-10-01T04:59:44.160Z,84.96
2022-10-01T05:00:44.211Z,85.06
2022-10-01T05:01:44.267Z,85.06
2022-10-01T05:02:44.149Z,84.75
2022-10-01T05:03:44.133Z,84.96
2022-10-01T05:04:44.124Z,84.75
2022-10-01T05:05:44.128Z,84.55
2022-10-01T05:06:44.125Z,85.16
2022-10-01T05:07:44.117Z,84.86
2022-10-01T05:08:44.098Z,84.66
2022-10-01T05:09:44.113Z,84.96
2022-10-01T05:10:44.085Z,84.75
2022-10-01T05:11:44.084Z,84.96
2022-10-01T05:12:44.113Z,85.37
2022-10-01T05:13:44.080Z,84.75
2022-10-01T05:14:44.057Z,84.96
2022-10-01T05:15:44.073Z,85.00
2022-10-01T05:16:44.133Z,85.30
2022-10-01T05:17:44.052Z,85.51
2022-10-01T05:18:44.049Z,85.98
2022-10-01T05:19:44.057Z,85.27
2022-10-01T05:20:44.032Z,85.06
2022-10-01T05:21:44.033Z,85.37
2022-10-01T05:22:44.056Z,85.13
2022-10-01T05:23:44.019Z,85.47
2022-10-01T05:24:44.013Z,85.47
2022-10-01T05:25:43.992Z,85.16
2022-10-01T05:26:43.996Z,85.57
2022-10-01T05:27:44.034Z,85.37
2022-10-01T05:28:44.003Z,84.75
2022-10-01T05:29:43.967Z,85.37
2022-10-01T05:30:43.978Z,85.06
2022-10-01T05:31:44.027Z,85.68
2022-10-01T05:32:43.957Z,86.63
2022-10-01T05:33:43.946Z,87.18
2022-10-01T05:34:43.951Z,87.76
2022-10-01T05:35:43.952Z,87.65
2022-10-01T05:36:44.024Z,87.35
2022-10-01T05:37:43.931Z,86.49
2022-10-01T05:38:43.931Z,87.49
2022-10-01T05:39:43.938Z,87.65
2022-10-01T05:40:44.014Z,88.31
2022-10-01T05:41:43.924Z,88.17
2022-10-01T05:42:43.923Z,87.96
2022-10-01T05:43:43.893Z,88.00
2022-10-01T05:44:44.108Z,87.70
2022-10-01T05:45:43.918Z,88.06
2022-10-01T05:46:43.875Z,88.37
2022-10-01T05:47:43.875Z,87.45
2022-10-01T05:48:44.014Z,87.55
2022-10-01T05:49:43.866Z,87.79
2022-10-01T05:50:43.853Z,88.31
2022-10-01T05:51:43.870Z,87.79
2022-10-01T05:52:43.853Z,87.70
2022-10-01T05:53:47.095Z,88.10
2022-10-01T05:54:44.878Z,88.06
2022-10-01T05:55:43.834Z,87.82
2022-10-01T05:56:43.874Z,87.14
2022-10-01T05:57:43.823Z,87.76
2022-10-01T05:58:43.805Z,87.38
2022-10-01T05:59:43.822Z,87.24
2022-10-01T06:00:43.822Z,87.30
2022-10-01T06:01:43.824Z,86.69
2022-10-01T06:02:43.886Z,86.73
2022-10-01T06:03:43.803Z,87.35
2022-10-01T06:04:43.781Z,87.35
2022-10-01T06:05:43.826Z,86.94
2022-10-01T06:06:43.802Z,87.04
2022-10-01T06:07:43.770Z,86.90
2022-10-01T06:08:43.753Z,86.80
2022-10-01T06:09:43.843Z,85.68
2022-10-01T06:10:43.729Z,86.12
2022-10-01T06:11:43.755Z,86.98
2022-10-01T06:12:43.725Z,88.06
2022-10-01T06:13:43.755Z,88.37
2022-10-01T06:14:43.721Z,87.55
2022-10-01T06:15:43.725Z,87.35
2022-10-01T06:16:43.771Z,88.17
2022-10-01T06:17:43.703Z,87.00
2022-10-01T06:18:43.734Z,87.76
2022-10-01T06:19:43.698Z,87.61
2022-10-01T06:20:43.678Z,86.73
2022-10-01T06:21:43.670Z,86.33
2022-10-01T06:22:43.677Z,87.20
2022-10-01T06:23:43.679Z,87.45
2022-10-01T06:24:43.659Z,86.94
2022-10-01T06:25:43.662Z,87.71
2022-10-01T06:26:43.650Z,88.06
2022-10-01T06:27:43.672Z,87.71
2022-10-01T06:28:43.633Z,86.59
2022-10-01T06:29:43.629Z,87.20
2022-10-01T06:30:43.672Z,87.06
2022-10-01T06:31:43.710Z,86.43
2022-10-01T06:32:43.613Z,86.94
2022-10-01T06:33:43.622Z,86.59
2022-10-01T06:34:43.661Z,87.51
2022-10-01T06:35:43.602Z,86.53
2022-10-01T06:36:43.594Z,87.24
2022-10-01T06:37:43.638Z,86.80
2022-10-01T06:38:43.660Z,87.35
2022-10-01T06:39:43.691Z,87.55
2022-10-01T06:40:43.738Z,87.41
2022-10-01T06:41:43.562Z,88.17
2022-10-01T06:42:44.575Z,87.41
2022-10-01T06:43:44.092Z,87.24
2022-10-01T06:44:43.542Z,86.94
2022-10-01T06:45:43.635Z,86.29
2022-10-01T06:46:43.629Z,86.49
2022-10-01T06:47:43.529Z,87.51
2022-10-01T06:48:43.526Z,87.96
2022-10-01T06:49:47.329Z,88.53
2022-10-01T06:50:44.527Z,88.02
2022-10-01T06:51:43.517Z,88.63
2022-10-01T06:52:43.504Z,87.71
2022-10-01T06:53:43.496Z,88.12
2022-10-01T06:54:43.536Z,88.63
2022-10-01T06:55:43.509Z,88.73
2022-10-01T06:56:43.481Z,88.98
2022-10-01T06:57:43.468Z,88.17
2022-10-01T06:58:44.121Z,88.88
2022-10-01T06:59:43.459Z,88.53
2022-10-01T07:00:43.490Z,88.53
2022-10-01T07:01:43.544Z,88.98
2022-10-01T07:02:43.511Z,88.63
2022-10-01T07:03:43.462Z,88.43
2022-10-01T07:04:43.433Z,88.22
2022-10-01T07:05:43.479Z,88.37
2022-10-01T07:06:43.423Z,88.22
2022-10-01T07:07:43.442Z,87.82
2022-10-01T07:08:43.404Z,87.96
2022-10-01T07:09:43.423Z,88.22
2022-10-01T07:10:43.427Z,88.02
2022-10-01T07:11:43.401Z,88.08
2022-10-01T07:12:43.393Z,88.02
2022-10-01T07:13:43.395Z,87.71
2022-10-01T07:14:43.370Z,87.71
2022-10-01T07:15:43.404Z,88.22
2022-10-01T07:16:43.391Z,87.00
2022-10-01T07:17:43.386Z,87.41
2022-10-01T07:18:43.443Z,87.41
2022-10-01T07:19:43.337Z,86.96
2022-10-01T07:20:43.341Z,86.76
2022-10-01T07:21:43.410Z,87.26
2022-10-01T07:22:43.326Z,86.65
2022-10-01T07:23:43.363Z,87.06
2022-10-01T07:24:43.324Z,86.76
2022-10-01T07:25:43.333Z,86.76
2022-10-01T07:26:43.413Z,85.84
2022-10-01T07:27:43.501Z,86.35
2022-10-01T07:28:43.294Z,86.96
2022-10-01T07:29:43.290Z,86.35
2022-10-01T07:30:43.309Z,86.86
2022-10-01T07:31:43.341Z,86.35
2022-10-01T07:32:43.261Z,86.10
2022-10-01T07:33:43.252Z,85.80
2022-10-01T07:34:43.285Z,85.49
2022-10-01T07:35:43.242Z,85.69
2022-10-01T07:36:43.240Z,85.39
2022-10-01T07:37:43.261Z,85.74
2022-10-01T07:38:43.269Z,86.51
2022-10-01T07:39:43.249Z,85.84
2022-10-01T07:40:43.228Z,85.60
2022-10-01T07:41:43.273Z,85.80
2022-10-01T07:42:43.225Z,85.39
2022-10-01T07:43:43.210Z,85.60
2022-10-01T07:44:43.209Z,85.49
2022-10-01T07:45:43.244Z,85.49
2022-10-01T07:46:43.205Z,85.69
2022-10-01T07:47:43.185Z,85.63
2022-10-01T07:48:43.180Z,85.60
2022-10-01T07:49:43.180Z,85.08
2022-10-01T07:50:43.167Z,85.53
2022-10-01T07:51:43.160Z,85.19
2022-10-01T07:52:43.146Z,85.60
2022-10-01T07:53:43.157Z,85.28
2022-10-01T07:54:43.143Z,85.19
2022-10-01T07:55:43.137Z,85.39
2022-10-01T07:56:43.113Z,84.98
2022-10-01T07:57:43.133Z,85.08
2022-10-01T07:58:43.130Z,84.94
2022-10-01T07:59:43.128Z,84.70
2022-10-01T08:00:43.102Z,83.56
2022-10-01T08:01:43.184Z,85.28
2022-10-01T08:02:43.241Z,84.64
2022-10-01T08:03:43.098Z,84.74
2022-10-01T08:04:43.074Z,84.94
2022-10-01T08:05:43.082Z,85.25
2022-10-01T08:06:43.066Z,84.98
2022-10-01T08:07:43.082Z,84.78
2022-10-01T08:08:43.052Z,84.64
2022-10-01T08:09:43.052Z,84.78
2022-10-01T08:10:43.061Z,84.94
2022-10-01T08:11:43.044Z,85.14
2022-10-01T08:12:43.059Z,84.67
2022-10-01T08:13:43.059Z,85.19
2022-10-01T08:14:43.029Z,84.94
2022-10-01T08:15:43.014Z,84.47
2022-10-01T08:16:43.084Z,84.98
2022-10-01T08:17:43.213Z,84.74
2022-10-01T08:18:43.013Z,84.59
2022-10-01T08:19:43.019Z,84.80
2022-10-01T08:20:43.029Z,84.74
2022-10-01T08:21:42.971Z,84.84
2022-10-01T08:22:42.988Z,84.84
2022-10-01T08:23:42.970Z,84.43
2022-10-01T08:24:42.975Z,84.78
2022-10-01T08:25:43.001Z,85.39
2022-10-01T08:26:42.941Z,85.08
2022-10-01T08:27:42.949Z,85.13
2022-10-01T08:28:42.944Z,85.28
2022-10-01T08:29:42.973Z,85.28
2022-10-01T08:30:43.581Z,85.05
2022-10-01T08:31:42.940Z,85.05
2022-10-01T08:32:42.902Z,84.94
2022-10-01T08:33:42.953Z,84.70
2022-10-01T08:34:42.892Z,84.50
2022-10-01T08:35:42.904Z,84.94
2022-10-01T08:36:42.900Z,85.35
2022-10-01T08:37:42.878Z,85.39
2022-10-01T08:38:42.884Z,85.25
2022-10-01T08:39:42.917Z,85.25
2022-10-01T08:40:42.875Z,84.74
2022-10-01T08:41:42.863Z,85.25
2022-10-01T08:42:42.902Z,85.55
2022-10-01T08:43:42.859Z,85.25
2022-10-01T08:44:42.852Z,84.90
2022-10-01T08:45:42.886Z,85.96
2022-10-01T08:46:42.829Z,85.96
2022-10-01T08:47:42.822Z,85.45
2022-10-01T08:48:42.836Z,85.41
2022-10-01T08:49:42.804Z,85.82
2022-10-01T08:50:42.804Z,86.47
2022-10-01T08:51:42.829Z,86.47
2022-10-01T08:52:43.850Z,85.86
2022-10-01T08:53:42.779Z,86.16
2022-10-01T08:54:42.770Z,85.51
2022-10-01T08:55:42.779Z,86.06
2022-10-01T08:56:42.774Z,86.27
2022-10-01T08:57:42.790Z,86.27
2022-10-01T08:58:42.761Z,86.43
2022-10-01T08:59:42.758Z,85.86
2022-10-01T09:00:42.814Z,86.77
2022-10-01T09:01:42.777Z,86.47
2022-10-01T09:02:42.726Z,85.96
2022-10-01T09:03:42.851Z,86.98
2022-10-01T09:04:42.824Z,86.68
2022-10-01T09:05:42.711Z,85.96
2022-10-01T09:06:42.720Z,86.13
2022-10-01T09:07:42.694Z,86.33
2022-10-01T09:08:42.686Z,86.43
2022-10-01T09:09:42.682Z,86.94
2022-10-01T09:10:42.715Z,85.82
2022-10-01T09:11:43.043Z,85.82
2022-10-01T09:12:42.654Z,85.92
2022-10-01T09:13:43.380Z,86.08
2022-10-01T09:14:42.651Z,85.27
2022-10-01T09:15:42.646Z,85.06
2022-10-01T09:16:42.738Z,84.86
2022-10-01T09:17:42.644Z,85.17
2022-10-01T09:18:42.635Z,85.27
2022-10-01T09:19:46.054Z,84.56
2022-10-01T09:20:44.621Z,85.41
2022-10-01T09:21:42.666Z,85.68
2022-10-01T09:22:42.655Z,85.74
2022-10-01T09:23:42.587Z,85.17
2022-10-01T09:24:42.608Z,85.13
2022-10-01T09:25:42.560Z,84.62
2022-10-01T09:26:42.592Z,85.03
2022-10-01T09:27:42.551Z,84.92
2022-10-01T09:28:42.554Z,84.66
2022-10-01T09:29:42.548Z,85.17
2022-10-01T09:30:42.566Z,85.74
2022-10-01T09:31:42.657Z,85.43
2022-10-01T09:32:43.180Z,85.09
2022-10-01T09:33:42.516Z,84.72
2022-10-01T09:34:42.514Z,84.38
2022-10-01T09:35:42.505Z,84.28
2022-10-01T09:36:42.602Z,85.03
2022-10-01T09:37:42.506Z,85.23
2022-10-01T09:38:42.488Z,84.52
2022-10-01T09:39:42.476Z,85.37
2022-10-01T09:40:42.465Z,85.58
2022-10-01T09:41:42.447Z,85.47
2022-10-01T09:42:43.510Z,85.74
2022-10-01T09:43:42.461Z,85.68
2022-10-01T09:44:42.439Z,85.43
2022-10-01T09:45:42.486Z,86.15
2022-10-01T09:46:42.475Z,85.47
2022-10-01T09:47:42.538Z,85.74
2022-10-01T09:48:42.415Z,85.64
2022-10-01T09:49:42.397Z,84.92
2022-10-01T09:50:42.392Z,85.13
2022-10-01T09:51:42.689Z,85.43
2022-10-01T09:52:42.406Z,85.19
2022-10-01T09:53:42.398Z,85.13
2022-10-01T09:54:42.393Z,84.68
2022-10-01T09:55:42.369Z,84.58
2022-10-01T09:56:42.466Z,84.58
2022-10-01T09:57:42.374Z,84.48
2022-10-01T09:58:43.100Z,84.38
2022-10-01T09:59:42.340Z,84.23
2022-10-01T10:00:42.365Z,84.48
2022-10-01T10:01:42.368Z,84.23
2022-10-01T10:02:48.205Z,84.68
2022-10-01T10:03:44.316Z,84.34
2022-10-01T10:04:42.292Z,83.32
2022-10-01T10:05:42.295Z,83.01
2022-10-01T10:06:42.372Z,83.22
2022-10-01T10:07:42.343Z,82.98
2022-10-01T10:08:42.282Z,83.08
2022-10-01T10:09:42.275Z,83.08
2022-10-01T10:10:43.128Z,82.78
2022-10-01T10:11:42.266Z,82.33
2022-10-01T10:12:42.267Z,82.67
2022-10-01T10:13:42.263Z,82.23
2022-10-01T10:14:42.226Z,81.41
2022-10-01T10:15:42.274Z,82.64
2022-10-01T10:16:42.282Z,81.99
2022-10-01T10:17:42.251Z,81.66
2022-10-01T10:18:42.236Z,82.17
2022-10-01T10:19:42.209Z,82.03
2022-10-01T10:20:42.198Z,82.73
2022-10-01T10:21:42.222Z,82.98
2022-10-01T10:22:42.190Z,84.60
2022-10-01T10:23:42.202Z,82.57
2022-10-01T10:24:42.162Z,84.50
2022-10-01T10:25:42.169Z,83.42
2022-10-01T10:26:42.162Z,84.50
2022-10-01T10:27:42.157Z,84.70
2022-10-01T10:28:44.075Z,86.43
2022-10-01T10:29:43.201Z,85.82
2022-10-01T10:30:42.180Z,86.07
2022-10-01T10:31:42.237Z,86.98
2022-10-01T10:32:42.106Z,86.83
2022-10-01T10:33:42.166Z,87.08
2022-10-01T10:34:42.118Z,86.27
2022-10-01T10:35:42.097Z,85.72
2022-10-01T10:36:42.155Z,86.02
2022-10-01T10:37:42.091Z,86.02
2022-10-01T10:38:42.059Z,86.02
2022-10-01T10:39:42.097Z,86.07
2022-10-01T10:40:42.094Z,86.98
2022-10-01T10:41:42.055Z,87.18
2022-10-01T10:42:42.066Z,87.24
2022-10-01T10:43:42.074Z,87.38
2022-10-01T10:44:42.029Z,87.04
2022-10-01T10:45:42.018Z,86.57
2022-10-01T10:46:46.004Z,86.22
2022-10-01T10:47:43.022Z,87.55
2022-10-01T10:48:41.993Z,87.20
2022-10-01T10:49:41.993Z,86.49
2022-10-01T10:50:42.002Z,85.27
2022-10-01T10:51:41.985Z,85.74
2022-10-01T10:52:45.642Z,84.93
2022-10-01T10:53:43.612Z,84.08
2022-10-01T10:54:41.953Z,84.14
2022-10-01T10:55:41.961Z,84.24
2022-10-01T10:56:41.968Z,83.03
2022-10-01T10:57:41.952Z,84.14
2022-10-01T10:58:41.927Z,83.29
2022-10-01T10:59:41.915Z,82.98
2022-10-01T11:00:41.970Z,81.97
2022-10-01T11:01:42.062Z,81.63
2022-10-01T11:02:41.944Z,80.18
2022-10-01T11:03:52.313Z,80.38
2022-10-01T11:04:41.901Z,79.26
2022-10-01T11:05:41.884Z,80.84
2022-10-01T11:06:41.881Z,80.64
2022-10-01T11:07:41.856Z,79.77
2022-10-01T11:08:42.647Z,80.31
2022-10-01T11:09:41.845Z,81.01
2022-10-01T11:10:41.843Z,79.05
2022-10-01T11:11:41.928Z,77.60
2022-10-01T11:12:41.839Z,77.97
2022-10-01T11:13:41.956Z,74.55
2022-10-01T11:14:41.825Z,68.55
2022-10-01T11:15:41.838Z,68.18
2022-10-01T11:16:41.824Z,67.58
2022-10-01T11:17:41.810Z,69.29
2022-10-01T11:18:41.799Z,68.71
2022-10-01T11:19:41.791Z,67.29
2022-10-01T11:20:41.779Z,62.61
2022-10-01T11:21:41.793Z,60.89
2022-10-01T11:22:41.889Z,60.42
2022-10-01T11:23:41.834Z,60.95
2022-10-01T11:24:41.760Z,62.47
2022-10-01T11:25:41.843Z,61.78
2022-10-01T11:26:41.774Z,60.96
2022-10-01T11:27:41.742Z,60.42
2022-10-01T11:28:41.725Z,60.49
2022-10-01T11:29:41.764Z,59.72
2022-10-01T11:30:41.724Z,63.11
2022-10-01T11:31:41.807Z,65.04
2022-10-01T11:32:41.723Z,66.91
2022-10-01T11:33:41.691Z,65.75
2022-10-01T11:34:42.695Z,62.32
2022-10-01T11:35:41.712Z,58.71
2022-10-01T11:36:41.726Z,56.66
2022-10-01T11:37:41.723Z,58.18
2022-10-01T11:38:41.658Z,55.71
2022-10-01T11:39:41.658Z,55.56
2022-10-01T11:40:41.650Z,57.24
2022-10-01T11:41:41.749Z,56.76
2022-10-01T11:42:41.693Z,56.73
2022-10-01T11:43:41.642Z,58.04
2022-10-01T11:44:41.623Z,59.32
2022-10-01T11:45:41.671Z,61.25
2022-10-01T11:46:41.784Z,59.55
2022-10-01T11:47:41.653Z,63.40
2022-10-01T11:48:41.617Z,64.84
2022-10-01T11:49:41.765Z,65.37
2022-10-01T11:50:41.582Z,65.91
2022-10-01T11:51:41.613Z,66.35
2022-10-01T11:52:41.565Z,66.91
2022-10-01T11:53:41.589Z,67.51
2022-10-01T11:54:41.582Z,69.32
2022-10-01T11:55:41.585Z,67.18
2022-10-01T11:56:41.593Z,63.42
2022-10-01T11:57:41.537Z,60.82
2022-10-01T11:58:41.626Z,58.51
2022-10-01T11:59:41.528Z,59.47
2022-10-01T12:00:41.524Z,58.04
2022-10-01T12:01:41.561Z,60.92
2022-10-01T12:02:41.547Z,61.60
2022-10-01T12:03:41.492Z,66.78
2022-10-01T12:04:41.521Z,66.38
2022-10-01T12:05:42.180Z,67.51
2022-10-01T12:06:41.871Z,67.71
2022-10-01T12:07:41.479Z,69.35
2022-10-01T12:08:41.542Z,69.79
2022-10-01T12:09:41.464Z,70.93
2022-10-01T12:10:41.495Z,72.38
2022-10-01T12:11:41.520Z,74.49
2022-10-01T12:12:41.463Z,74.56
2022-10-01T12:13:41.440Z,73.52
2022-10-01T12:14:42.780Z,72.34
2022-10-01T12:15:41.434Z,73.01
2022-10-01T12:16:41.530Z,73.65
2022-10-01T12:17:41.479Z,74.19
2022-10-01T12:18:41.599Z,75.40
2022-10-01T12:19:41.400Z,74.49
2022-10-01T12:20:41.424Z,75.10
2022-10-01T12:21:41.384Z,75.98
2022-10-01T12:22:41.424Z,77.97
2022-10-01T12:23:41.384Z,76.89
2022-10-01T12:24:41.364Z,78.10
2022-10-01T12:25:41.358Z,77.97
2022-10-01T12:26:41.363Z,77.56
2022-10-01T12:27:41.372Z,79.38
2022-10-01T12:28:41.402Z,79.32
2022-10-01T12:29:42.108Z,78.57
2022-10-01T12:30:41.325Z,80.16
2022-10-01T12:31:41.362Z,80.66
2022-10-01T12:32:41.355Z,80.83
2022-10-01T12:33:42.084Z,80.08
2022-10-01T12:34:41.298Z,80.99
2022-10-01T12:35:41.303Z,78.74
2022-10-01T12:36:41.314Z,78.43
2022-10-01T12:37:41.294Z,79.85
2022-10-01T12:38:41.304Z,79.81
2022-10-01T12:39:41.271Z,79.50
2022-10-01T12:40:42.116Z,77.92
2022-10-01T12:41:41.275Z,75.74
2022-10-01T12:42:41.267Z,77.08
2022-10-01T12:43:41.286Z,79.36
2022-10-01T12:44:41.238Z,80.51
2022-10-01T12:45:41.213Z,78.80
2022-10-01T12:46:41.390Z,77.79
2022-10-01T12:47:41.215Z,78.23
2022-10-01T12:48:41.214Z,77.45
2022-10-01T12:49:41.218Z,77.34
2022-10-01T12:50:41.183Z,72.50
2022-10-01T12:51:41.190Z,69.06
2022-10-01T12:52:41.176Z,67.59